sensor_id;sensor_type;location;lat;lon;timestamp;P1;durP1;ratioP1;P2;durP2;ratioP2
434;SDS011;204;48.942;9.256;2023-04-15T00:00:14;6.00;;;5.53;;
434;SDS011;204;48.942;9.256;2023-04-15T00:02:40;6.85;;;5.47;;
434;SDS011;204;48.942;9.256;2023-04-15T00:05:06;6.63;;;6.00;;
434;SDS011;204;48.942;9.256;2023-04-15T00:07:32;8.52;;;6.15;;
434;SDS011;204;48.942;9.256;2023-04-15T00:09:58;9.87;;;7.43;;
434;SDS011;204;48.942;9.256;2023-04-15T00:12:24;10.80;;;7.67;;
434;SDS011;204;48.942;9.256;2023-04-15T00:14:51;7.90;;;7.15;;
434;SDS011;204;48.942;9.256;2023-04-15T00:17:17;9.93;;;6.70;;
434;SDS011;204;48.942;9.256;2023-04-15T00:19:43;10.00;;;6.73;;
434;SDS011;204;48.942;9.256;2023-04-15T00:22:09;7.82;;;6.22;;
434;SDS011;204;48.942;9.256;2023-04-15T00:24:36;7.00;;;6.10;;
434;SDS011;204;48.942;9.256;2023-04-15T00:27:02;7.30;;;6.90;;
434;SDS011;204;48.942;9.256;2023-04-15T00:29:28;8.43;;;7.18;;
434;SDS011;204;48.942;9.256;2023-04-15T00:31:54;8.02;;;6.63;;
434;SDS011;204;48.942;9.256;2023-04-15T00:34:21;9.13;;;7.70;;
434;SDS011;204;48.942;9.256;2023-04-15T00:36:47;9.35;;;6.95;;
434;SDS011;204;48.942;9.256;2023-04-15T00:39:13;10.13;;;7.30;;
434;SDS011;204;48.942;9.256;2023-04-15T00:41:40;7.50;;;7.10;;
434;SDS011;204;48.942;9.256;2023-04-15T00:44:06;10.32;;;6.47;;
434;SDS011;204;48.942;9.256;2023-04-15T00:46:34;8.43;;;6.38;;
434;SDS011;204;48.942;9.256;2023-04-15T00:49:02;7.75;;;7.25;;
434;SDS011;204;48.942;9.256;2023-04-15T00:51:29;8.52;;;6.38;;
434;SDS011;204;48.942;9.256;2023-04-15T00:53:57;8.55;;;6.40;;
434;SDS011;204;48.942;9.256;2023-04-15T00:56:24;11.40;;;7.32;;
434;SDS011;204;48.942;9.256;2023-04-15T00:58:51;7.05;;;6.68;;
434;SDS011;204;48.942;9.256;2023-04-15T01:01:20;9.02;;;7.65;;
434;SDS011;204;48.942;9.256;2023-04-15T01:03:47;7.72;;;6.88;;
434;SDS011;204;48.942;9.256;2023-04-15T01:06:15;10.60;;;7.35;;
434;SDS011;204;48.942;9.256;2023-04-15T01:08:42;9.93;;;6.78;;
434;SDS011;204;48.942;9.256;2023-04-15T01:11:09;10.15;;;6.60;;
434;SDS011;204;48.942;9.256;2023-04-15T01:13:36;8.88;;;6.95;;
434;SDS011;204;48.942;9.256;2023-04-15T01:16:02;15.77;;;6.97;;
434;SDS011;204;48.942;9.256;2023-04-15T01:18:28;7.73;;;6.63;;
434;SDS011;204;48.942;9.256;2023-04-15T01:20:55;7.90;;;7.50;;
434;SDS011;204;48.942;9.256;2023-04-15T01:23:21;7.20;;;6.80;;
434;SDS011;204;48.942;9.256;2023-04-15T01:25:48;11.05;;;6.35;;
434;SDS011;204;48.942;9.256;2023-04-15T01:28:15;6.95;;;6.55;;
434;SDS011;204;48.942;9.256;2023-04-15T01:30:41;8.52;;;6.82;;
434;SDS011;204;48.942;9.256;2023-04-15T01:33:06;8.27;;;7.18;;
434;SDS011;204;48.942;9.256;2023-04-15T01:35:32;12.10;;;7.60;;
434;SDS011;204;48.942;9.256;2023-04-15T01:38:02;7.33;;;6.93;;
434;SDS011;204;48.942;9.256;2023-04-15T01:40:30;6.60;;;6.20;;
434;SDS011;204;48.942;9.256;2023-04-15T01:42:56;8.48;;;7.03;;
434;SDS011;204;48.942;9.256;2023-04-15T01:45:21;7.07;;;6.70;;
434;SDS011;204;48.942;9.256;2023-04-15T01:47:47;8.30;;;7.87;;
434;SDS011;204;48.942;9.256;2023-04-15T01:50:13;9.30;;;8.53;;
434;SDS011;204;48.942;9.256;2023-04-15T01:52:39;8.43;;;7.30;;
434;SDS011;204;48.942;9.256;2023-04-15T01:55:05;9.27;;;8.30;;
434;SDS011;204;48.942;9.256;2023-04-15T01:57:32;8.35;;;7.75;;
434;SDS011;204;48.942;9.256;2023-04-15T01:59:58;8.13;;;7.77;;
434;SDS011;204;48.942;9.256;2023-04-15T02:02:23;7.80;;;7.07;;
434;SDS011;204;48.942;9.256;2023-04-15T02:04:49;8.20;;;6.97;;
434;SDS011;204;48.942;9.256;2023-04-15T02:07:15;9.20;;;6.80;;
434;SDS011;204;48.942;9.256;2023-04-15T02:09:41;8.02;;;7.13;;
434;SDS011;204;48.942;9.256;2023-04-15T02:12:08;9.13;;;8.10;;
434;SDS011;204;48.942;9.256;2023-04-15T02:14:33;9.13;;;7.60;;
434;SDS011;204;48.942;9.256;2023-04-15T02:16:59;9.67;;;7.23;;
434;SDS011;204;48.942;9.256;2023-04-15T02:19:31;8.60;;;8.13;;
434;SDS011;204;48.942;9.256;2023-04-15T02:21:57;8.95;;;7.35;;
434;SDS011;204;48.942;9.256;2023-04-15T02:24:23;7.65;;;6.93;;
434;SDS011;204;48.942;9.256;2023-04-15T02:26:49;8.50;;;6.90;;
434;SDS011;204;48.942;9.256;2023-04-15T02:29:15;11.13;;;7.90;;
434;SDS011;204;48.942;9.256;2023-04-15T02:31:40;7.97;;;6.80;;
434;SDS011;204;48.942;9.256;2023-04-15T02:34:06;8.53;;;7.27;;
434;SDS011;204;48.942;9.256;2023-04-15T02:36:32;8.17;;;6.63;;
434;SDS011;204;48.942;9.256;2023-04-15T02:38:58;9.65;;;7.30;;
434;SDS011;204;48.942;9.256;2023-04-15T02:41:24;8.57;;;7.40;;
434;SDS011;204;48.942;9.256;2023-04-15T02:43:52;6.80;;;6.40;;
434;SDS011;204;48.942;9.256;2023-04-15T02:46:18;10.47;;;7.80;;
434;SDS011;204;48.942;9.256;2023-04-15T02:48:43;13.97;;;7.53;;
434;SDS011;204;48.942;9.256;2023-04-15T02:51:13;13.80;;;8.00;;
434;SDS011;204;48.942;9.256;2023-04-15T02:53:40;9.05;;;7.43;;
434;SDS011;204;48.942;9.256;2023-04-15T02:56:06;10.67;;;7.00;;
434;SDS011;204;48.942;9.256;2023-04-15T02:58:32;7.77;;;7.37;;
434;SDS011;204;48.942;9.256;2023-04-15T03:00:59;7.95;;;7.25;;
434;SDS011;204;48.942;9.256;2023-04-15T03:03:24;8.03;;;6.40;;
434;SDS011;204;48.942;9.256;2023-04-15T03:05:51;7.70;;;7.30;;
434;SDS011;204;48.942;9.256;2023-04-15T03:08:17;8.83;;;7.03;;
434;SDS011;204;48.942;9.256;2023-04-15T03:10:43;6.70;;;6.40;;
434;SDS011;204;48.942;9.256;2023-04-15T03:13:08;7.77;;;6.30;;
434;SDS011;204;48.942;9.256;2023-04-15T03:15:34;8.47;;;7.60;;
434;SDS011;204;48.942;9.256;2023-04-15T03:18:00;7.27;;;6.90;;
434;SDS011;204;48.942;9.256;2023-04-15T03:20:25;8.60;;;7.10;;
434;SDS011;204;48.942;9.256;2023-04-15T03:22:51;9.80;;;7.37;;
434;SDS011;204;48.942;9.256;2023-04-15T03:25:17;8.70;;;6.97;;
434;SDS011;204;48.942;9.256;2023-04-15T03:27:42;8.77;;;7.37;;
434;SDS011;204;48.942;9.256;2023-04-15T03:30:08;9.10;;;6.83;;
434;SDS011;204;48.942;9.256;2023-04-15T03:32:34;7.50;;;7.15;;
434;SDS011;204;48.942;9.256;2023-04-15T03:34:59;10.80;;;8.00;;
434;SDS011;204;48.942;9.256;2023-04-15T03:37:31;11.90;;;7.78;;
434;SDS011;204;48.942;9.256;2023-04-15T03:39:56;10.10;;;8.60;;
434;SDS011;204;48.942;9.256;2023-04-15T03:42:22;7.60;;;7.20;;
434;SDS011;204;48.942;9.256;2023-04-15T03:44:48;9.60;;;7.33;;
434;SDS011;204;48.942;9.256;2023-04-15T03:47:13;7.97;;;7.57;;
434;SDS011;204;48.942;9.256;2023-04-15T03:49:39;8.00;;;7.33;;
434;SDS011;204;48.942;9.256;2023-04-15T03:52:05;12.77;;;8.47;;
434;SDS011;204;48.942;9.256;2023-04-15T03:54:30;9.63;;;7.47;;
434;SDS011;204;48.942;9.256;2023-04-15T03:56:56;7.57;;;7.00;;
434;SDS011;204;48.942;9.256;2023-04-15T03:59:22;10.47;;;7.60;;
434;SDS011;204;48.942;9.256;2023-04-15T04:01:48;7.03;;;6.57;;
434;SDS011;204;48.942;9.256;2023-04-15T04:04:13;8.00;;;6.87;;
434;SDS011;204;48.942;9.256;2023-04-15T04:06:39;9.50;;;7.20;;
434;SDS011;204;48.942;9.256;2023-04-15T04:09:05;7.17;;;6.77;;
434;SDS011;204;48.942;9.256;2023-04-15T04:11:30;10.73;;;9.00;;
434;SDS011;204;48.942;9.256;2023-04-15T04:13:57;7.13;;;6.53;;
434;SDS011;204;48.942;9.256;2023-04-15T04:16:22;8.77;;;8.27;;
434;SDS011;204;48.942;9.256;2023-04-15T04:18:48;9.60;;;7.27;;
434;SDS011;204;48.942;9.256;2023-04-15T04:21:14;8.60;;;6.23;;
434;SDS011;204;48.942;9.256;2023-04-15T04:23:40;11.80;;;6.25;;
434;SDS011;204;48.942;9.256;2023-04-15T04:26:06;9.70;;;6.97;;
434;SDS011;204;48.942;9.256;2023-04-15T04:28:31;8.40;;;7.70;;
434;SDS011;204;48.942;9.256;2023-04-15T04:30:57;7.90;;;6.93;;
434;SDS011;204;48.942;9.256;2023-04-15T04:33:23;8.17;;;7.30;;
434;SDS011;204;48.942;9.256;2023-04-15T04:35:49;8.60;;;7.13;;
434;SDS011;204;48.942;9.256;2023-04-15T04:38:14;7.87;;;6.47;;
434;SDS011;204;48.942;9.256;2023-04-15T04:40:40;9.60;;;7.57;;
434;SDS011;204;48.942;9.256;2023-04-15T04:43:05;6.53;;;6.00;;
434;SDS011;204;48.942;9.256;2023-04-15T04:45:31;7.10;;;6.70;;
434;SDS011;204;48.942;9.256;2023-04-15T04:47:57;8.50;;;6.20;;
434;SDS011;204;48.942;9.256;2023-04-15T04:50:22;6.97;;;6.57;;
434;SDS011;204;48.942;9.256;2023-04-15T04:52:48;7.10;;;6.77;;
434;SDS011;204;48.942;9.256;2023-04-15T04:55:13;10.07;;;7.00;;
434;SDS011;204;48.942;9.256;2023-04-15T04:57:39;6.73;;;6.33;;
434;SDS011;204;48.942;9.256;2023-04-15T05:00:05;7.88;;;6.82;;
434;SDS011;204;48.942;9.256;2023-04-15T05:02:32;8.70;;;7.00;;
434;SDS011;204;48.942;9.256;2023-04-15T05:04:58;7.77;;;7.30;;
434;SDS011;204;48.942;9.256;2023-04-15T05:07:24;9.77;;;7.90;;
434;SDS011;204;48.942;9.256;2023-04-15T05:09:50;8.07;;;7.67;;
434;SDS011;204;48.942;9.256;2023-04-15T05:12:16;7.83;;;7.43;;
434;SDS011;204;48.942;9.256;2023-04-15T05:14:42;8.38;;;7.53;;
434;SDS011;204;48.942;9.256;2023-04-15T05:17:08;9.80;;;7.43;;
434;SDS011;204;48.942;9.256;2023-04-15T05:19:33;8.20;;;7.10;;
434;SDS011;204;48.942;9.256;2023-04-15T05:21:59;9.30;;;7.10;;
434;SDS011;204;48.942;9.256;2023-04-15T05:24:25;11.07;;;8.50;;
434;SDS011;204;48.942;9.256;2023-04-15T05:26:51;7.10;;;6.70;;
434;SDS011;204;48.942;9.256;2023-04-15T05:29:16;9.07;;;7.50;;
434;SDS011;204;48.942;9.256;2023-04-15T05:31:42;7.90;;;7.50;;
434;SDS011;204;48.942;9.256;2023-04-15T05:34:08;7.57;;;7.00;;
434;SDS011;204;48.942;9.256;2023-04-15T05:36:34;7.38;;;6.93;;
434;SDS011;204;48.942;9.256;2023-04-15T05:38:59;7.97;;;7.57;;
434;SDS011;204;48.942;9.256;2023-04-15T05:41:25;7.67;;;7.20;;
434;SDS011;204;48.942;9.256;2023-04-15T05:43:51;7.73;;;6.60;;
434;SDS011;204;48.942;9.256;2023-04-15T05:46:16;8.50;;;7.60;;
434;SDS011;204;48.942;9.256;2023-04-15T05:48:42;9.10;;;8.60;;
434;SDS011;204;48.942;9.256;2023-04-15T05:51:08;7.87;;;7.40;;
434;SDS011;204;48.942;9.256;2023-04-15T05:53:33;8.10;;;7.73;;
434;SDS011;204;48.942;9.256;2023-04-15T05:55:59;9.93;;;6.78;;
434;SDS011;204;48.942;9.256;2023-04-15T05:58:25;9.27;;;7.40;;
434;SDS011;204;48.942;9.256;2023-04-15T06:00:51;8.93;;;7.80;;
434;SDS011;204;48.942;9.256;2023-04-15T06:03:16;8.00;;;7.60;;
434;SDS011;204;48.942;9.256;2023-04-15T06:05:42;8.33;;;7.90;;
434;SDS011;204;48.942;9.256;2023-04-15T06:08:09;9.57;;;7.38;;
434;SDS011;204;48.942;9.256;2023-04-15T06:10:35;7.97;;;7.57;;
434;SDS011;204;48.942;9.256;2023-04-15T06:13:01;7.90;;;7.50;;
434;SDS011;204;48.942;9.256;2023-04-15T06:15:31;6.72;;;6.32;;
434;SDS011;204;48.942;9.256;2023-04-15T06:17:56;8.50;;;7.13;;
434;SDS011;204;48.942;9.256;2023-04-15T06:20:22;11.03;;;8.20;;
434;SDS011;204;48.942;9.256;2023-04-15T06:22:48;7.90;;;6.60;;
434;SDS011;204;48.942;9.256;2023-04-15T06:25:13;6.90;;;6.50;;
434;SDS011;204;48.942;9.256;2023-04-15T06:27:39;7.17;;;6.80;;
434;SDS011;204;48.942;9.256;2023-04-15T06:30:05;7.03;;;6.43;;
434;SDS011;204;48.942;9.256;2023-04-15T06:32:31;11.77;;;7.28;;
434;SDS011;204;48.942;9.256;2023-04-15T06:34:57;15.80;;;7.85;;
434;SDS011;204;48.942;9.256;2023-04-15T06:37:23;11.90;;;8.70;;
434;SDS011;204;48.942;9.256;2023-04-15T06:39:49;10.57;;;8.33;;
434;SDS011;204;48.942;9.256;2023-04-15T06:42:14;10.93;;;8.77;;
434;SDS011;204;48.942;9.256;2023-04-15T06:44:40;11.77;;;9.20;;
434;SDS011;204;48.942;9.256;2023-04-15T06:47:06;12.53;;;8.40;;
434;SDS011;204;48.942;9.256;2023-04-15T06:49:33;11.13;;;8.25;;
434;SDS011;204;48.942;9.256;2023-04-15T06:51:59;7.18;;;6.75;;
434;SDS011;204;48.942;9.256;2023-04-15T06:54:24;7.37;;;6.97;;
434;SDS011;204;48.942;9.256;2023-04-15T06:56:50;7.20;;;6.80;;
434;SDS011;204;48.942;9.256;2023-04-15T06:59:16;8.85;;;5.70;;
434;SDS011;204;48.942;9.256;2023-04-15T07:01:42;9.52;;;6.63;;
434;SDS011;204;48.942;9.256;2023-04-15T07:04:08;7.43;;;6.27;;
434;SDS011;204;48.942;9.256;2023-04-15T07:06:35;8.23;;;5.75;;
434;SDS011;204;48.942;9.256;2023-04-15T07:09:00;5.90;;;5.57;;
434;SDS011;204;48.942;9.256;2023-04-15T07:11:28;7.07;;;5.80;;
434;SDS011;204;48.942;9.256;2023-04-15T07:13:54;7.30;;;6.27;;
434;SDS011;204;48.942;9.256;2023-04-15T07:16:20;6.20;;;5.90;;
434;SDS011;204;48.942;9.256;2023-04-15T07:18:46;6.50;;;6.10;;
434;SDS011;204;48.942;9.256;2023-04-15T07:21:11;6.33;;;5.97;;
434;SDS011;204;48.942;9.256;2023-04-15T07:23:37;9.43;;;6.47;;
434;SDS011;204;48.942;9.256;2023-04-15T07:26:03;11.03;;;6.17;;
434;SDS011;204;48.942;9.256;2023-04-15T07:28:29;9.23;;;6.55;;
434;SDS011;204;48.942;9.256;2023-04-15T07:30:55;7.13;;;6.00;;
434;SDS011;204;48.942;9.256;2023-04-15T07:33:21;6.40;;;6.00;;
434;SDS011;204;48.942;9.256;2023-04-15T07:35:47;8.95;;;6.45;;
434;SDS011;204;48.942;9.256;2023-04-15T07:38:13;6.47;;;5.45;;
434;SDS011;204;48.942;9.256;2023-04-15T07:40:39;7.70;;;5.47;;
434;SDS011;204;48.942;9.256;2023-04-15T07:43:06;6.40;;;5.72;;
434;SDS011;204;48.942;9.256;2023-04-15T07:45:32;10.10;;;5.35;;
434;SDS011;204;48.942;9.256;2023-04-15T07:47:59;7.72;;;5.03;;
434;SDS011;204;48.942;9.256;2023-04-15T07:50:25;8.95;;;5.85;;
434;SDS011;204;48.942;9.256;2023-04-15T07:52:51;6.03;;;5.73;;
434;SDS011;204;48.942;9.256;2023-04-15T07:55:17;5.20;;;4.37;;
434;SDS011;204;48.942;9.256;2023-04-15T07:57:45;5.78;;;5.53;;
434;SDS011;204;48.942;9.256;2023-04-15T08:00:11;6.35;;;5.55;;
434;SDS011;204;48.942;9.256;2023-04-15T08:02:37;6.32;;;4.80;;
434;SDS011;204;48.942;9.256;2023-04-15T08:05:03;7.50;;;5.63;;
434;SDS011;204;48.942;9.256;2023-04-15T08:07:30;6.82;;;5.70;;
434;SDS011;204;48.942;9.256;2023-04-15T08:09:55;6.87;;;5.40;;
434;SDS011;204;48.942;9.256;2023-04-15T08:12:21;7.83;;;5.63;;
434;SDS011;204;48.942;9.256;2023-04-15T08:14:48;9.55;;;9.05;;
434;SDS011;204;48.942;9.256;2023-04-15T08:17:16;7.80;;;5.80;;
434;SDS011;204;48.942;9.256;2023-04-15T08:19:42;7.43;;;5.40;;
434;SDS011;204;48.942;9.256;2023-04-15T08:22:08;5.70;;;5.33;;
434;SDS011;204;48.942;9.256;2023-04-15T08:24:34;9.02;;;5.25;;
434;SDS011;204;48.942;9.256;2023-04-15T08:27:00;5.40;;;4.93;;
434;SDS011;204;48.942;9.256;2023-04-15T08:29:28;7.15;;;4.75;;
434;SDS011;204;48.942;9.256;2023-04-15T08:31:54;7.73;;;5.77;;
434;SDS011;204;48.942;9.256;2023-04-15T08:34:19;6.70;;;4.37;;
434;SDS011;204;48.942;9.256;2023-04-15T08:36:45;6.30;;;5.20;;
434;SDS011;204;48.942;9.256;2023-04-15T08:39:10;6.30;;;4.43;;
434;SDS011;204;48.942;9.256;2023-04-15T08:41:44;7.30;;;4.57;;
434;SDS011;204;48.942;9.256;2023-04-15T08:44:12;5.30;;;4.72;;
434;SDS011;204;48.942;9.256;2023-04-15T08:46:38;9.20;;;4.93;;
434;SDS011;204;48.942;9.256;2023-04-15T08:49:07;6.35;;;5.35;;
434;SDS011;204;48.942;9.256;2023-04-15T08:51:35;8.57;;;5.72;;
434;SDS011;204;48.942;9.256;2023-04-15T08:54:01;9.87;;;6.63;;
434;SDS011;204;48.942;9.256;2023-04-15T08:56:27;5.25;;;4.75;;
434;SDS011;204;48.942;9.256;2023-04-15T08:58:56;7.25;;;4.05;;
434;SDS011;204;48.942;9.256;2023-04-15T09:01:23;5.10;;;4.30;;
434;SDS011;204;48.942;9.256;2023-04-15T09:03:49;6.75;;;5.05;;
434;SDS011;204;48.942;9.256;2023-04-15T09:06:15;7.60;;;5.07;;
434;SDS011;204;48.942;9.256;2023-04-15T09:08:41;6.38;;;5.65;;
434;SDS011;204;48.942;9.256;2023-04-15T09:11:07;8.93;;;5.67;;
434;SDS011;204;48.942;9.256;2023-04-15T09:13:33;7.60;;;5.53;;
434;SDS011;204;48.942;9.256;2023-04-15T09:16:01;6.00;;;5.03;;
434;SDS011;204;48.942;9.256;2023-04-15T09:18:29;5.60;;;4.55;;
434;SDS011;204;48.942;9.256;2023-04-15T09:21:02;6.00;;;4.67;;
434;SDS011;204;48.942;9.256;2023-04-15T09:23:33;7.77;;;5.00;;
434;SDS011;204;48.942;9.256;2023-04-15T09:26:00;8.35;;;5.60;;
434;SDS011;204;48.942;9.256;2023-04-15T09:28:26;7.93;;;5.63;;
434;SDS011;204;48.942;9.256;2023-04-15T09:30:55;7.30;;;5.43;;
434;SDS011;204;48.942;9.256;2023-04-15T09:33:25;5.83;;;5.07;;
434;SDS011;204;48.942;9.256;2023-04-15T09:36:01;8.68;;;5.22;;
434;SDS011;204;48.942;9.256;2023-04-15T09:38:29;6.03;;;5.73;;
434;SDS011;204;48.942;9.256;2023-04-15T09:40:55;7.20;;;5.50;;
434;SDS011;204;48.942;9.256;2023-04-15T09:43:22;5.20;;;4.73;;
434;SDS011;204;48.942;9.256;2023-04-15T09:46:01;6.40;;;4.82;;
434;SDS011;204;48.942;9.256;2023-04-15T09:48:26;5.70;;;5.40;;
434;SDS011;204;48.942;9.256;2023-04-15T09:50:53;5.37;;;4.90;;
434;SDS011;204;48.942;9.256;2023-04-15T09:53:23;6.13;;;4.80;;
434;SDS011;204;48.942;9.256;2023-04-15T09:58:22;6.80;;;4.70;;
434;SDS011;204;48.942;9.256;2023-04-15T10:00:52;6.70;;;3.83;;
434;SDS011;204;48.942;9.256;2023-04-15T10:03:20;6.30;;;4.90;;
434;SDS011;204;48.942;9.256;2023-04-15T10:05:47;3.70;;;3.50;;
434;SDS011;204;48.942;9.256;2023-04-15T10:08:15;4.88;;;3.25;;
434;SDS011;204;48.942;9.256;2023-04-15T10:10:43;4.90;;;3.10;;
434;SDS011;204;48.942;9.256;2023-04-15T10:13:11;4.90;;;2.97;;
434;SDS011;204;48.942;9.256;2023-04-15T10:15:43;4.67;;;3.23;;
434;SDS011;204;48.942;9.256;2023-04-15T10:18:11;4.57;;;3.70;;
434;SDS011;204;48.942;9.256;2023-04-15T10:20:41;3.30;;;3.10;;
434;SDS011;204;48.942;9.256;2023-04-15T10:23:08;5.00;;;3.03;;
434;SDS011;204;48.942;9.256;2023-04-15T10:25:35;3.80;;;3.70;;
434;SDS011;204;48.942;9.256;2023-04-15T10:28:01;7.43;;;3.30;;
434;SDS011;204;48.942;9.256;2023-04-15T10:30:27;3.53;;;2.73;;
434;SDS011;204;48.942;9.256;2023-04-15T10:32:53;2.60;;;2.40;;
434;SDS011;204;48.942;9.256;2023-04-15T10:35:21;5.90;;;2.97;;
434;SDS011;204;48.942;9.256;2023-04-15T10:37:47;3.57;;;3.37;;
434;SDS011;204;48.942;9.256;2023-04-15T10:42:48;4.43;;;3.17;;
434;SDS011;204;48.942;9.256;2023-04-15T10:45:17;5.87;;;3.20;;
434;SDS011;204;48.942;9.256;2023-04-15T10:47:43;4.33;;;3.10;;
434;SDS011;204;48.942;9.256;2023-04-15T10:50:09;3.27;;;3.00;;
434;SDS011;204;48.942;9.256;2023-04-15T10:52:36;5.07;;;3.60;;
434;SDS011;204;48.942;9.256;2023-04-15T10:55:14;3.67;;;3.47;;
434;SDS011;204;48.942;9.256;2023-04-15T10:57:40;6.30;;;4.30;;
434;SDS011;204;48.942;9.256;2023-04-15T11:08:06;5.73;;;3.67;;
434;SDS011;204;48.942;9.256;2023-04-15T11:13:01;4.20;;;3.77;;
434;SDS011;204;48.942;9.256;2023-04-15T11:15:32;4.37;;;3.50;;
434;SDS011;204;48.942;9.256;2023-04-15T11:18:21;4.20;;;3.97;;
434;SDS011;204;48.942;9.256;2023-04-15T11:20:53;6.73;;;3.67;;
434;SDS011;204;48.942;9.256;2023-04-15T11:23:41;4.60;;;4.00;;
434;SDS011;204;48.942;9.256;2023-04-15T11:26:10;3.67;;;3.47;;
434;SDS011;204;48.942;9.256;2023-04-15T11:28:36;4.97;;;4.03;;
434;SDS011;204;48.942;9.256;2023-04-15T11:31:08;4.57;;;3.53;;
434;SDS011;204;48.942;9.256;2023-04-15T11:33:43;5.70;;;3.47;;
434;SDS011;204;48.942;9.256;2023-04-15T11:36:29;4.87;;;3.33;;
434;SDS011;204;48.942;9.256;2023-04-15T11:38:58;3.67;;;2.57;;
434;SDS011;204;48.942;9.256;2023-04-15T11:41:24;2.87;;;2.60;;
434;SDS011;204;48.942;9.256;2023-04-15T11:43:50;3.50;;;2.83;;
434;SDS011;204;48.942;9.256;2023-04-15T11:46:16;6.63;;;3.80;;
434;SDS011;204;48.942;9.256;2023-04-15T11:48:43;5.20;;;3.50;;
434;SDS011;204;48.942;9.256;2023-04-15T11:51:09;2.83;;;2.50;;
434;SDS011;204;48.942;9.256;2023-04-15T11:56:19;4.77;;;2.90;;
434;SDS011;204;48.942;9.256;2023-04-15T11:58:46;5.23;;;3.40;;
434;SDS011;204;48.942;9.256;2023-04-15T12:01:14;4.60;;;3.43;;
434;SDS011;204;48.942;9.256;2023-04-15T12:03:49;4.23;;;3.27;;
434;SDS011;204;48.942;9.256;2023-04-15T12:06:21;4.40;;;3.27;;
434;SDS011;204;48.942;9.256;2023-04-15T12:08:51;5.45;;;3.22;;
434;SDS011;204;48.942;9.256;2023-04-15T12:11:45;3.72;;;2.72;;
434;SDS011;204;48.942;9.256;2023-04-15T12:16:49;2.50;;;1.75;;
434;SDS011;204;48.942;9.256;2023-04-15T12:19:21;2.85;;;2.03;;
434;SDS011;204;48.942;9.256;2023-04-15T12:22:14;2.85;;;1.75;;
434;SDS011;204;48.942;9.256;2023-04-15T12:24:41;2.10;;;1.88;;
434;SDS011;204;48.942;9.256;2023-04-15T12:27:11;2.42;;;1.75;;
434;SDS011;204;48.942;9.256;2023-04-15T12:29:38;3.35;;;2.63;;
434;SDS011;204;48.942;9.256;2023-04-15T12:34:33;3.38;;;3.17;;
434;SDS011;204;48.942;9.256;2023-04-15T12:37:01;4.07;;;3.45;;
434;SDS011;204;48.942;9.256;2023-04-15T12:39:28;5.68;;;2.60;;
434;SDS011;204;48.942;9.256;2023-04-15T12:41:56;3.35;;;2.67;;
434;SDS011;204;48.942;9.256;2023-04-15T12:44:24;3.33;;;2.70;;
434;SDS011;204;48.942;9.256;2023-04-15T12:46:50;3.65;;;2.10;;
434;SDS011;204;48.942;9.256;2023-04-15T12:49:17;4.70;;;2.35;;
434;SDS011;204;48.942;9.256;2023-04-15T12:51:47;1.50;;;1.40;;
434;SDS011;204;48.942;9.256;2023-04-15T12:54:15;2.28;;;1.58;;
434;SDS011;204;48.942;9.256;2023-04-15T12:56:44;2.83;;;1.48;;
434;SDS011;204;48.942;9.256;2023-04-15T12:59:10;4.68;;;2.30;;
434;SDS011;204;48.942;9.256;2023-04-15T13:01:36;3.35;;;1.77;;
434;SDS011;204;48.942;9.256;2023-04-15T13:04:02;3.47;;;1.40;;
434;SDS011;204;48.942;9.256;2023-04-15T13:06:29;5.00;;;1.67;;
434;SDS011;204;48.942;9.256;2023-04-15T13:08:56;4.90;;;1.73;;
434;SDS011;204;48.942;9.256;2023-04-15T13:11:23;1.30;;;1.27;;
434;SDS011;204;48.942;9.256;2023-04-15T13:13:49;2.90;;;1.60;;
434;SDS011;204;48.942;9.256;2023-04-15T13:16:16;1.90;;;1.70;;
434;SDS011;204;48.942;9.256;2023-04-15T13:18:42;1.43;;;1.20;;
434;SDS011;204;48.942;9.256;2023-04-15T13:21:09;2.63;;;1.38;;
434;SDS011;204;48.942;9.256;2023-04-15T13:23:35;2.90;;;2.20;;
434;SDS011;204;48.942;9.256;2023-04-15T13:26:01;3.10;;;0.90;;
434;SDS011;204;48.942;9.256;2023-04-15T13:28:27;3.53;;;1.27;;
434;SDS011;204;48.942;9.256;2023-04-15T13:30:52;1.73;;;0.83;;
434;SDS011;204;48.942;9.256;2023-04-15T13:33:18;1.83;;;1.17;;
434;SDS011;204;48.942;9.256;2023-04-15T13:35:43;5.23;;;3.93;;
434;SDS011;204;48.942;9.256;2023-04-15T13:38:09;1.67;;;1.20;;
434;SDS011;204;48.942;9.256;2023-04-15T13:40:34;1.50;;;1.00;;
434;SDS011;204;48.942;9.256;2023-04-15T13:43:00;1.03;;;0.93;;
434;SDS011;204;48.942;9.256;2023-04-15T13:45:27;1.30;;;0.90;;
434;SDS011;204;48.942;9.256;2023-04-15T13:47:52;2.63;;;1.40;;
434;SDS011;204;48.942;9.256;2023-04-15T13:50:20;3.75;;;1.10;;
434;SDS011;204;48.942;9.256;2023-04-15T13:52:45;2.10;;;0.90;;
434;SDS011;204;48.942;9.256;2023-04-15T13:55:11;2.60;;;1.30;;
434;SDS011;204;48.942;9.256;2023-04-15T13:57:37;1.53;;;0.90;;
434;SDS011;204;48.942;9.256;2023-04-15T14:00:02;0.93;;;0.90;;
434;SDS011;204;48.942;9.256;2023-04-15T14:02:28;3.42;;;0.95;;
434;SDS011;204;48.942;9.256;2023-04-15T14:04:54;1.70;;;1.20;;
434;SDS011;204;48.942;9.256;2023-04-15T14:07:20;1.27;;;0.80;;
434;SDS011;204;48.942;9.256;2023-04-15T14:09:46;2.33;;;1.07;;
434;SDS011;204;48.942;9.256;2023-04-15T14:12:12;1.98;;;1.30;;
434;SDS011;204;48.942;9.256;2023-04-15T14:14:38;7.35;;;1.40;;
434;SDS011;204;48.942;9.256;2023-04-15T14:17:04;3.47;;;1.53;;
434;SDS011;204;48.942;9.256;2023-04-15T14:19:30;2.50;;;1.63;;
434;SDS011;204;48.942;9.256;2023-04-15T14:21:56;1.60;;;1.50;;
434;SDS011;204;48.942;9.256;2023-04-15T14:24:22;2.50;;;1.23;;
434;SDS011;204;48.942;9.256;2023-04-15T14:26:47;1.13;;;1.00;;
434;SDS011;204;48.942;9.256;2023-04-15T14:29:13;2.13;;;1.60;;
434;SDS011;204;48.942;9.256;2023-04-15T14:31:38;5.23;;;1.37;;
434;SDS011;204;48.942;9.256;2023-04-15T14:34:04;1.80;;;1.20;;
434;SDS011;204;48.942;9.256;2023-04-15T14:36:30;1.33;;;1.13;;
434;SDS011;204;48.942;9.256;2023-04-15T14:38:56;3.05;;;1.95;;
434;SDS011;204;48.942;9.256;2023-04-15T14:41:21;2.50;;;1.23;;
434;SDS011;204;48.942;9.256;2023-04-15T14:43:48;3.17;;;1.03;;
434;SDS011;204;48.942;9.256;2023-04-15T14:46:13;6.83;;;1.40;;
434;SDS011;204;48.942;9.256;2023-04-15T14:48:39;6.63;;;1.43;;
434;SDS011;204;48.942;9.256;2023-04-15T14:51:05;2.10;;;1.37;;
434;SDS011;204;48.942;9.256;2023-04-15T14:53:31;1.73;;;1.30;;
434;SDS011;204;48.942;9.256;2023-04-15T14:55:56;3.00;;;1.60;;
434;SDS011;204;48.942;9.256;2023-04-15T14:58:22;1.57;;;1.17;;
434;SDS011;204;48.942;9.256;2023-04-15T15:00:47;3.10;;;1.40;;
434;SDS011;204;48.942;9.256;2023-04-15T15:03:13;2.33;;;1.40;;
434;SDS011;204;48.942;9.256;2023-04-15T15:05:39;2.70;;;1.90;;
434;SDS011;204;48.942;9.256;2023-04-15T15:08:06;2.15;;;1.50;;
434;SDS011;204;48.942;9.256;2023-04-15T15:10:33;1.73;;;1.48;;
434;SDS011;204;48.942;9.256;2023-04-15T15:12:59;1.83;;;1.15;;
434;SDS011;204;48.942;9.256;2023-04-15T15:15:26;2.15;;;1.10;;
434;SDS011;204;48.942;9.256;2023-04-15T15:17:52;1.60;;;1.50;;
434;SDS011;204;48.942;9.256;2023-04-15T15:20:18;1.30;;;1.20;;
434;SDS011;204;48.942;9.256;2023-04-15T15:22:44;2.80;;;1.83;;
434;SDS011;204;48.942;9.256;2023-04-15T15:25:09;4.03;;;2.10;;
434;SDS011;204;48.942;9.256;2023-04-15T15:27:35;3.30;;;1.67;;
434;SDS011;204;48.942;9.256;2023-04-15T15:30:01;2.53;;;1.77;;
434;SDS011;204;48.942;9.256;2023-04-15T15:32:27;1.77;;;1.70;;
434;SDS011;204;48.942;9.256;2023-04-15T15:34:53;2.03;;;1.80;;
434;SDS011;204;48.942;9.256;2023-04-15T15:37:18;3.23;;;1.83;;
434;SDS011;204;48.942;9.256;2023-04-15T15:39:44;2.90;;;1.50;;
434;SDS011;204;48.942;9.256;2023-04-15T15:42:10;4.53;;;1.80;;
434;SDS011;204;48.942;9.256;2023-04-15T15:44:35;1.73;;;1.43;;
434;SDS011;204;48.942;9.256;2023-04-15T15:47:02;1.20;;;1.10;;
434;SDS011;204;48.942;9.256;2023-04-15T15:49:31;3.08;;;2.15;;
434;SDS011;204;48.942;9.256;2023-04-15T15:51:57;1.97;;;1.90;;
434;SDS011;204;48.942;9.256;2023-04-15T15:54:23;2.07;;;1.60;;
434;SDS011;204;48.942;9.256;2023-04-15T15:56:48;4.35;;;1.95;;
434;SDS011;204;48.942;9.256;2023-04-15T15:59:14;2.03;;;1.87;;
434;SDS011;204;48.942;9.256;2023-04-15T16:01:40;2.00;;;1.90;;
434;SDS011;204;48.942;9.256;2023-04-15T16:04:05;3.60;;;3.30;;